Littlesburg, West Virginia
Current Conditions -  °F | °C
As of 5:14 AM on Tuesday 21 Oct 2014 (Local Time) from KBLF Reporting Station
Overcast Overcast  
Wind Chill: 51°   Ceiling: 5500
Heat Index: 51°   Visibility: 10mi
Dew Point: 45°   Wind: 3mph
Humidity: 80%   Direction: 250°WSW
Pressure: 29.94"   Gusts: NA
Location:  37.2994°N, 81.226°W
Report Text: KBLF 210914Z AUTO 25003KT 10SM FEW026 OVC055 11/07 A2994 RMK AO2 T01060072
Loading
Personal Weather Stations






























Interactive Weather Map New forecast layout! Learn more

10-Day Weather Forecast

Advertisements
Track Severe Weather on mobile